createdAt,value
2023-01-17T00:00:19.467Z,12.52
2023-01-17T00:02:51.802Z,11.23
2023-01-17T00:05:43.571Z,12.93
2023-01-17T00:08:34.843Z,12.73
2023-01-17T00:11:04.764Z,11.40
2023-01-17T00:13:34.041Z,13.30
2023-01-17T00:16:03.836Z,14.25
2023-01-17T00:18:33.478Z,11.10
2023-01-17T00:21:20.161Z,14.88
2023-01-17T00:24:08.013Z,13.32
2023-01-17T00:26:57.137Z,12.50
2023-01-17T00:29:24.912Z,13.90
2023-01-17T00:31:53.369Z,14.45
2023-01-17T00:34:24.506Z,13.25
2023-01-17T00:36:52.987Z,12.93
2023-01-17T00:39:22.587Z,12.57
2023-01-17T00:41:50.412Z,14.13
2023-01-17T00:44:36.873Z,14.15
2023-01-17T00:47:23.630Z,12.73
2023-01-17T00:50:11.872Z,12.90
2023-01-17T00:52:58.632Z,11.32
2023-01-17T00:55:47.198Z,10.80
2023-01-17T00:58:33.685Z,10.73
2023-01-17T01:01:27.167Z,11.82
2023-01-17T01:04:17.391Z,12.20
2023-01-17T01:07:04.715Z,12.45
2023-01-17T01:09:51.572Z,15.23
2023-01-17T01:12:39.973Z,10.77
2023-01-17T01:15:32.108Z,12.60
2023-01-17T01:18:38.630Z,12.27
2023-01-17T01:21:44.933Z,11.60
2023-01-17T01:24:34.573Z,12.32
2023-01-17T01:27:22.105Z,13.90
2023-01-17T01:30:13.019Z,11.68
2023-01-17T01:33:01.061Z,11.70
2023-01-17T01:35:31.650Z,13.30
2023-01-17T01:38:05.961Z,11.45
2023-01-17T01:40:44.272Z,12.63
2023-01-17T01:43:20.079Z,11.63
2023-01-17T01:46:00.643Z,12.57
2023-01-17T01:48:38.125Z,12.98
2023-01-17T01:51:11.033Z,15.05
2023-01-17T01:53:44.651Z,13.13
2023-01-17T01:58:51.675Z,13.10
2023-01-17T02:01:24.687Z,12.45
2023-01-17T02:03:54.739Z,12.68
2023-01-17T02:06:32.302Z,11.05
2023-01-17T02:09:08.000Z,12.85
2023-01-17T02:11:39.002Z,11.27
2023-01-17T02:17:07.070Z,12.88
2023-01-17T02:20:22.121Z,11.18
2023-01-17T02:23:33.951Z,12.70
2023-01-17T02:26:36.692Z,11.32
2023-01-17T02:29:24.250Z,9.77
2023-01-17T02:31:59.288Z,12.02
2023-01-17T02:34:38.929Z,11.80
2023-01-17T02:37:14.375Z,11.20
2023-01-17T02:39:52.824Z,13.80
2023-01-17T02:42:28.070Z,11.77
2023-01-17T02:44:57.277Z,11.30
2023-01-17T02:47:31.446Z,12.23
2023-01-17T02:50:09.875Z,11.00
2023-01-17T02:52:57.128Z,11.45
2023-01-17T02:55:38.414Z,12.75
2023-01-17T02:58:24.883Z,10.30
2023-01-17T03:01:05.206Z,12.23
2023-01-17T03:03:43.346Z,10.85
2023-01-17T03:06:17.140Z,12.77
2023-01-17T03:11:17.633Z,13.40
2023-01-17T03:13:46.577Z,11.07
2023-01-17T03:16:21.288Z,13.50
2023-01-17T03:18:53.987Z,14.00
2023-01-17T03:21:24.809Z,12.00
2023-01-17T03:23:55.326Z,12.15
2023-01-17T03:26:24.815Z,12.75
2023-01-17T03:28:54.390Z,11.85
2023-01-17T03:31:23.337Z,11.40
2023-01-17T03:33:53.669Z,12.38
2023-01-17T03:36:23.398Z,13.57
2023-01-17T03:38:53.032Z,11.25
2023-01-17T03:41:26.501Z,13.38
2023-01-17T03:43:56.405Z,11.63
2023-01-17T03:46:27.543Z,12.85
2023-01-17T03:49:00.867Z,10.30
2023-01-17T03:51:30.806Z,11.07
2023-01-17T03:53:59.804Z,11.48
2023-01-17T03:56:29.742Z,10.95
2023-01-17T03:58:59.466Z,11.88
2023-01-17T04:01:28.491Z,12.32
2023-01-17T04:03:59.022Z,12.02
2023-01-17T04:06:30.989Z,10.60
2023-01-17T04:08:59.996Z,12.95
2023-01-17T04:11:29.107Z,12.35
2023-01-17T04:13:58.195Z,13.52
2023-01-17T04:16:31.046Z,11.63
2023-01-17T04:19:01.490Z,12.77
2023-01-17T04:21:30.588Z,12.68
2023-01-17T04:23:59.488Z,11.52
2023-01-17T04:26:28.574Z,11.15
2023-01-17T04:28:57.492Z,12.65
2023-01-17T04:31:29.859Z,13.15
2023-01-17T04:33:58.785Z,12.90
2023-01-17T04:36:30.003Z,14.30
2023-01-17T04:38:59.169Z,12.68
2023-01-17T04:41:28.518Z,12.25
2023-01-17T04:43:57.799Z,15.63
2023-01-17T04:46:26.847Z,11.80
2023-01-17T04:48:55.997Z,15.35
2023-01-17T04:51:24.927Z,11.60
2023-01-17T04:53:55.351Z,14.65
2023-01-17T04:56:24.371Z,15.32
2023-01-17T04:58:53.394Z,14.52
2023-01-17T05:01:23.001Z,14.20
2023-01-17T05:03:52.419Z,13.40
2023-01-17T05:06:21.522Z,15.82
2023-01-17T05:08:50.494Z,18.50
2023-01-17T05:11:20.920Z,16.70
2023-01-17T05:13:50.174Z,15.60
2023-01-17T05:16:20.440Z,16.05
2023-01-17T05:18:53.226Z,14.00
2023-01-17T05:21:22.815Z,16.47
2023-01-17T05:23:52.032Z,17.70
2023-01-17T05:26:22.560Z,15.55
2023-01-17T05:28:52.106Z,15.85
2023-01-17T05:31:21.542Z,16.83
2023-01-17T05:33:50.685Z,16.25
2023-01-17T05:36:21.171Z,17.83
2023-01-17T05:38:50.221Z,16.92
2023-01-17T05:41:19.416Z,16.83
2023-01-17T05:43:49.764Z,16.88
2023-01-17T05:46:19.299Z,21.38
2023-01-17T05:48:50.009Z,19.40
2023-01-17T05:51:22.448Z,16.05
2023-01-17T05:53:51.627Z,17.27
2023-01-17T05:56:21.283Z,17.42
2023-01-17T05:58:51.892Z,16.38
2023-01-17T06:01:20.868Z,23.55
2023-01-17T06:03:50.109Z,22.73
2023-01-17T06:06:19.348Z,21.05
2023-01-17T06:08:48.390Z,16.52
2023-01-17T06:11:18.619Z,21.60
2023-01-17T06:13:49.951Z,17.85
2023-01-17T06:16:20.308Z,18.02
2023-01-17T06:18:49.192Z,18.58
2023-01-17T06:21:18.282Z,18.67
2023-01-17T06:23:47.998Z,19.00
2023-01-17T06:26:16.884Z,20.08
2023-01-17T06:28:47.073Z,17.42
2023-01-17T06:31:16.211Z,18.77
2023-01-17T06:33:46.609Z,20.33
2023-01-17T06:36:15.978Z,21.92
2023-01-17T06:38:49.253Z,18.17
2023-01-17T06:41:23.810Z,22.10
2023-01-17T06:43:54.439Z,19.77
2023-01-17T06:46:23.915Z,22.60
2023-01-17T06:48:54.336Z,19.77
2023-01-17T06:51:23.218Z,21.17
2023-01-17T06:53:52.328Z,19.48
2023-01-17T06:56:21.594Z,19.67
2023-01-17T06:58:51.255Z,18.58
2023-01-17T07:01:20.777Z,20.92
2023-01-17T07:03:50.002Z,15.90
2023-01-17T07:06:20.445Z,20.10
2023-01-17T07:08:49.362Z,19.27
2023-01-17T07:11:18.501Z,16.90
2023-01-17T07:13:52.869Z,20.42
2023-01-17T07:16:22.633Z,18.02
2023-01-17T07:18:52.037Z,18.40
2023-01-17T07:21:22.855Z,20.52
2023-01-17T07:23:52.566Z,20.05
2023-01-17T07:26:21.489Z,18.02
2023-01-17T07:28:50.516Z,20.25
2023-01-17T07:31:19.790Z,20.35
2023-01-17T07:33:49.047Z,16.52
2023-01-17T07:36:18.145Z,22.83
2023-01-17T07:38:49.420Z,21.80
2023-01-17T07:41:18.958Z,20.52
2023-01-17T07:43:48.481Z,20.55
2023-01-17T07:46:17.975Z,19.00
2023-01-17T07:48:47.105Z,24.40
2023-01-17T07:51:16.232Z,20.52
2023-01-17T07:53:45.324Z,20.77
2023-01-17T07:56:16.571Z,21.80
2023-01-17T07:58:45.700Z,20.52
2023-01-17T08:01:16.997Z,22.42
2023-01-17T08:03:46.679Z,22.50
2023-01-17T08:06:20.600Z,21.48
2023-01-17T08:08:51.857Z,22.20
2023-01-17T08:11:22.463Z,23.10
2023-01-17T08:13:57.461Z,21.52
2023-01-17T08:16:28.624Z,21.58
2023-01-17T08:18:58.727Z,19.45
2023-01-17T08:21:27.745Z,20.60
2023-01-17T08:23:57.229Z,19.67
2023-01-17T08:26:32.525Z,23.63
2023-01-17T08:29:02.503Z,22.10
2023-01-17T08:31:34.645Z,22.75
2023-01-17T08:34:03.735Z,19.00
2023-01-17T08:36:33.084Z,20.33
2023-01-17T08:39:02.262Z,24.65
2023-01-17T08:41:32.655Z,20.80
2023-01-17T08:44:01.666Z,20.73
2023-01-17T08:46:32.184Z,20.52
2023-01-17T08:49:02.875Z,23.33
2023-01-17T08:51:32.989Z,19.05
2023-01-17T08:54:01.940Z,24.58
2023-01-17T08:56:32.401Z,24.15
2023-01-17T08:59:03.228Z,23.02
2023-01-17T09:01:41.833Z,21.27
2023-01-17T09:04:11.185Z,22.05
2023-01-17T09:06:41.424Z,22.05
2023-01-17T09:09:11.852Z,25.27
2023-01-17T09:11:42.300Z,22.88
2023-01-17T09:14:13.190Z,17.38
2023-01-17T09:16:42.190Z,23.45
2023-01-17T09:19:11.300Z,24.95
2023-01-17T09:21:40.328Z,21.48
2023-01-17T09:24:09.716Z,23.48
2023-01-17T09:26:38.938Z,22.40
2023-01-17T09:29:09.262Z,26.85
2023-01-17T09:31:38.373Z,24.98
2023-01-17T09:34:07.208Z,23.33
2023-01-17T09:36:36.471Z,21.63
2023-01-17T09:39:05.856Z,25.30
2023-01-17T09:41:37.524Z,22.35
2023-01-17T09:44:17.565Z,22.15
2023-01-17T09:46:50.092Z,22.20
2023-01-17T09:49:31.344Z,23.63
2023-01-17T09:52:01.092Z,22.20
2023-01-17T09:54:36.237Z,23.40
2023-01-17T09:57:17.563Z,20.75
2023-01-17T10:00:03.175Z,25.38
2023-01-17T10:03:01.987Z,22.73
2023-01-17T10:05:48.172Z,24.80
2023-01-17T10:08:30.040Z,22.75
2023-01-17T10:11:14.804Z,25.13
2023-01-17T13:25:14.093Z,22.20
2023-01-17T13:28:12.919Z,24.63
2023-01-17T13:31:10.751Z,25.90
2023-01-17T13:33:51.593Z,22.58
2023-01-17T13:36:50.678Z,24.52
2023-01-17T13:39:41.173Z,24.50
2023-01-17T13:42:20.410Z,28.92
2023-01-17T13:44:50.719Z,25.38
2023-01-17T13:47:40.627Z,24.00
2023-01-17T13:50:49.347Z,24.77
2023-01-17T13:53:48.196Z,23.38
2023-01-17T13:56:27.828Z,24.73
2023-01-17T13:59:02.874Z,22.88
2023-01-17T14:01:52.965Z,29.02
2023-01-17T14:04:24.654Z,21.80
2023-01-17T14:07:01.374Z,26.98
2023-01-17T14:09:44.078Z,24.85
2023-01-17T14:12:36.020Z,26.42
2023-01-17T14:15:20.687Z,22.17
2023-01-17T14:17:55.999Z,27.25
2023-01-17T14:20:45.567Z,25.52
2023-01-17T14:23:41.704Z,26.23
2023-01-17T14:26:46.925Z,23.33
2023-01-17T14:29:55.138Z,27.98
2023-01-17T14:33:18.924Z,25.33
2023-01-17T14:35:54.358Z,24.83
2023-01-17T14:38:26.296Z,28.48
2023-01-17T14:41:02.388Z,29.98
2023-01-17T14:43:42.423Z,27.70
2023-01-17T14:46:20.016Z,25.60
2023-01-17T14:48:53.836Z,26.23
2023-01-17T14:51:25.240Z,28.77
2023-01-17T14:54:00.675Z,29.67
2023-01-17T14:56:35.445Z,30.10
2023-01-17T14:59:07.104Z,29.05
2023-01-17T15:01:37.247Z,28.45
2023-01-17T15:04:25.962Z,25.55
2023-01-17T15:06:59.545Z,26.58
2023-01-17T15:09:33.857Z,26.60
2023-01-17T15:12:04.622Z,28.23
2023-01-17T15:14:40.149Z,27.92
2023-01-17T15:17:18.827Z,26.88
2023-01-17T15:19:54.331Z,29.55
2023-01-17T15:22:38.105Z,26.08
2023-01-17T15:25:10.172Z,25.63
2023-01-17T15:27:40.685Z,28.38
2023-01-17T15:30:16.743Z,28.42
2023-01-17T15:32:51.617Z,29.50
2023-01-17T15:35:25.268Z,28.23
2023-01-17T15:38:00.625Z,27.75
2023-01-17T15:40:33.304Z,23.98
2023-01-17T15:43:03.082Z,26.98
2023-01-17T15:45:37.967Z,26.80
2023-01-17T15:48:38.292Z,25.20
2023-01-17T15:51:10.609Z,24.27
2023-01-17T15:53:42.247Z,25.90
2023-01-17T15:56:24.142Z,29.05
2023-01-17T15:58:54.186Z,28.17
2023-01-17T16:01:27.105Z,24.95
2023-01-17T16:03:56.686Z,24.97
2023-01-17T16:06:45.939Z,23.63
2023-01-17T16:09:25.428Z,28.60
2023-01-17T16:11:55.236Z,25.30
2023-01-17T16:15:12.461Z,24.08
2023-01-17T16:17:45.614Z,26.85
2023-01-17T16:20:22.507Z,25.15
2023-01-17T16:22:53.996Z,25.15
2023-01-17T16:25:25.805Z,24.67
2023-01-17T16:27:56.036Z,24.33
2023-01-17T16:30:25.731Z,24.85
2023-01-17T16:32:57.044Z,27.48
2023-01-17T16:35:28.023Z,25.15
2023-01-17T16:38:02.982Z,28.35
2023-01-17T16:40:34.533Z,28.58
2023-01-17T16:43:04.247Z,27.80
2023-01-17T16:45:41.397Z,27.02
2023-01-17T16:48:14.119Z,24.65
2023-01-17T16:50:48.226Z,23.00
2023-01-17T16:53:31.120Z,23.92
2023-01-17T16:56:11.297Z,26.80
2023-01-17T16:58:45.602Z,26.73
2023-01-17T17:01:25.679Z,25.75
2023-01-17T17:03:55.096Z,23.73
2023-01-17T17:06:30.992Z,26.13
2023-01-17T17:09:02.182Z,26.08
2023-01-17T17:11:31.431Z,23.50
2023-01-17T17:14:11.209Z,24.70
2023-01-17T17:16:47.690Z,28.10
2023-01-17T17:19:17.453Z,24.08
2023-01-17T17:21:49.903Z,22.52
2023-01-17T17:24:47.351Z,25.52
2023-01-17T17:27:30.322Z,24.05
2023-01-17T17:30:01.319Z,23.38
2023-01-17T17:32:46.472Z,28.00
2023-01-17T17:35:20.190Z,26.75
2023-01-17T17:37:53.343Z,25.17
2023-01-17T17:40:24.763Z,27.33
2023-01-17T17:42:54.230Z,26.92
2023-01-17T17:45:24.571Z,28.38
2023-01-17T17:47:54.597Z,27.38
2023-01-17T17:50:28.645Z,27.50
2023-01-17T17:55:36.580Z,26.02
2023-01-17T17:58:06.097Z,25.02
2023-01-17T18:00:45.765Z,24.27
2023-01-17T18:03:16.074Z,24.50
2023-01-17T18:05:49.452Z,23.50
2023-01-17T18:08:26.843Z,24.17
2023-01-17T18:11:01.628Z,25.80
2023-01-17T18:13:32.532Z,25.77
2023-01-17T18:16:08.189Z,25.20
2023-01-17T18:18:42.163Z,28.20
2023-01-17T18:21:13.917Z,27.02
2023-01-17T18:23:46.954Z,24.08
2023-01-17T18:26:19.504Z,25.25
2023-01-17T18:28:51.248Z,24.10
2023-01-17T18:31:21.302Z,25.55
2023-01-17T18:33:51.204Z,23.92
2023-01-17T18:36:20.603Z,24.48
2023-01-17T18:38:50.673Z,25.17
2023-01-17T18:41:23.348Z,24.98
2023-01-17T18:43:52.681Z,25.05
2023-01-17T18:46:25.180Z,24.30
2023-01-17T18:49:05.020Z,24.63
2023-01-17T18:51:37.627Z,24.80
2023-01-17T18:54:09.069Z,26.67
2023-01-17T18:56:42.818Z,25.50
2023-01-17T18:59:18.582Z,25.15
2023-01-17T19:01:48.905Z,24.88
2023-01-17T19:04:19.784Z,26.60
2023-01-17T19:06:52.191Z,23.65
2023-01-17T19:09:22.692Z,25.10
2023-01-17T19:11:53.766Z,23.55
2023-01-17T19:14:26.687Z,22.77
2023-01-17T19:16:57.609Z,23.30
2023-01-17T19:19:29.679Z,24.23
2023-01-17T19:21:59.534Z,23.08
2023-01-17T19:24:30.210Z,23.60
2023-01-17T19:27:03.060Z,22.48
2023-01-17T19:29:36.102Z,22.17
2023-01-17T19:32:07.780Z,22.63
2023-01-17T19:34:44.643Z,21.85
2023-01-17T19:37:17.859Z,22.55
2023-01-17T19:39:54.889Z,22.13
2023-01-17T19:42:34.407Z,22.23
2023-01-17T19:45:06.823Z,22.48
2023-01-17T19:47:37.588Z,21.15
2023-01-17T19:50:13.385Z,22.77
2023-01-17T19:52:46.373Z,21.95
2023-01-17T19:55:16.138Z,21.92
2023-01-17T19:57:54.513Z,20.20
2023-01-17T20:00:30.354Z,22.25
2023-01-17T20:03:08.169Z,20.92
2023-01-17T20:05:43.602Z,21.42
2023-01-17T20:08:15.863Z,20.10
2023-01-17T20:10:46.751Z,21.83
2023-01-17T20:13:26.035Z,21.92
2023-01-17T20:15:59.592Z,23.17
2023-01-17T20:18:41.257Z,21.00
2023-01-17T20:21:16.207Z,22.15
2023-01-17T20:23:48.184Z,21.83
2023-01-17T20:26:31.294Z,21.48
2023-01-17T20:29:10.899Z,22.52
2023-01-17T20:31:44.278Z,21.75
2023-01-17T20:34:19.972Z,23.52
2023-01-17T20:36:49.740Z,21.65
2023-01-17T20:39:22.316Z,23.02
2023-01-17T20:41:52.189Z,23.10
2023-01-17T20:44:36.388Z,22.92
2023-01-17T20:47:09.279Z,23.35
2023-01-17T20:49:38.986Z,22.90
2023-01-17T20:52:15.221Z,22.42
2023-01-17T20:54:45.665Z,21.75
2023-01-17T20:57:15.484Z,22.90
2023-01-17T20:59:48.649Z,22.70
2023-01-17T21:02:18.634Z,21.60
2023-01-17T21:04:50.196Z,20.67
2023-01-17T21:07:19.679Z,21.40
2023-01-17T21:09:49.318Z,23.95
2023-01-17T21:12:23.440Z,21.83
2023-01-17T21:14:54.485Z,23.85
2023-01-17T21:17:32.425Z,23.27
2023-01-17T21:20:06.945Z,22.67
2023-01-17T21:22:36.590Z,22.65
2023-01-17T21:25:06.403Z,21.75
2023-01-17T21:27:36.212Z,21.10
2023-01-17T21:30:09.061Z,21.75
2023-01-17T21:32:39.231Z,21.70
2023-01-17T21:35:09.396Z,22.75
2023-01-17T21:37:38.949Z,21.65
2023-01-17T21:40:14.743Z,21.73
2023-01-17T21:42:45.084Z,22.92
2023-01-17T21:45:20.778Z,22.25
2023-01-17T21:47:50.481Z,22.02
2023-01-17T21:50:32.730Z,22.85
2023-01-17T21:53:08.544Z,22.13
2023-01-17T21:56:09.075Z,20.35
2023-01-17T21:58:49.300Z,21.45
2023-01-17T22:01:34.660Z,21.38
2023-01-17T22:04:07.250Z,21.83
2023-01-17T22:06:38.787Z,21.08
2023-01-17T22:09:08.757Z,22.63
2023-01-17T22:11:38.894Z,22.40
2023-01-17T22:14:08.646Z,20.85
2023-01-17T22:16:39.634Z,23.52
2023-01-17T22:19:09.443Z,22.25
2023-01-17T22:21:38.960Z,21.50
2023-01-17T22:24:09.566Z,22.00
2023-01-17T22:26:41.913Z,21.05
2023-01-17T22:29:12.371Z,22.50
2023-01-17T22:31:43.172Z,21.42
2023-01-17T22:34:15.069Z,22.45
2023-01-17T22:36:45.195Z,23.30
2023-01-17T22:39:14.682Z,20.90
2023-01-17T22:41:44.062Z,21.17
2023-01-17T22:44:13.041Z,21.35
2023-01-17T22:46:44.224Z,20.90
2023-01-17T22:49:15.925Z,21.95
2023-01-17T22:51:46.018Z,21.58
2023-01-17T22:54:15.436Z,21.15
2023-01-17T22:56:50.577Z,20.58
2023-01-17T22:59:28.136Z,20.35
2023-01-17T23:02:07.441Z,20.73
2023-01-17T23:04:36.930Z,23.13
2023-01-17T23:07:06.209Z,20.45
2023-01-17T23:09:36.293Z,21.05
2023-01-17T23:12:09.318Z,22.13
2023-01-17T23:14:56.464Z,23.85
2023-01-17T23:17:44.431Z,21.23
2023-01-17T23:20:13.991Z,20.88
2023-01-17T23:22:43.104Z,22.27
2023-01-17T23:25:14.232Z,23.15
2023-01-17T23:28:02.798Z,21.50
2023-01-17T23:30:34.819Z,21.80
2023-01-17T23:33:10.443Z,21.33
2023-01-17T23:35:42.409Z,22.17
2023-01-17T23:38:30.619Z,23.13
2023-01-17T23:41:22.041Z,21.30
2023-01-17T23:43:54.726Z,22.50
2023-01-17T23:46:25.487Z,20.90
2023-01-17T23:48:58.324Z,21.05
2023-01-17T23:51:31.106Z,20.15
2023-01-17T23:54:05.594Z,20.07
2023-01-17T23:56:34.975Z,20.70
2023-01-17T23:59:04.633Z,21.67
